createdAt,value
2018-01-25T00:00:23.000Z,44.75
2018-01-25T00:02:50.799Z,44.77
2018-01-25T00:05:18.585Z,43.73
2018-01-25T00:07:46.430Z,44.97
2018-01-25T00:10:14.229Z,42.10
2018-01-25T00:12:42.043Z,41.53
2018-01-25T00:15:10.663Z,42.00
2018-01-25T00:17:38.486Z,41.10
2018-01-25T00:20:06.343Z,45.20
2018-01-25T00:22:34.179Z,42.20
2018-01-25T00:25:01.975Z,43.20
2018-01-25T00:27:29.768Z,42.87
2018-01-25T00:29:58.385Z,40.90
2018-01-25T00:32:26.208Z,46.10
2018-01-25T00:34:54.032Z,43.20
2018-01-25T00:37:21.902Z,41.67
2018-01-25T00:39:49.734Z,45.87
2018-01-25T00:42:17.543Z,43.60
2018-01-25T00:44:45.351Z,42.53
2018-01-25T00:47:13.218Z,43.67
2018-01-25T00:49:41.080Z,40.77
2018-01-25T00:52:09.023Z,44.13
2018-01-25T00:54:36.828Z,44.27
2018-01-25T00:57:04.632Z,44.57
2018-01-25T00:59:32.458Z,43.60
2018-01-25T01:02:00.260Z,44.43
2018-01-25T01:04:28.065Z,44.13
2018-01-25T01:06:55.847Z,43.67
2018-01-25T01:09:23.628Z,43.97
2018-01-25T01:11:51.533Z,46.20
2018-01-25T01:14:19.370Z,41.73
2018-01-25T01:16:47.229Z,42.57
2018-01-25T01:19:15.031Z,46.67
2018-01-25T01:21:42.881Z,41.17
2018-01-25T01:24:10.695Z,42.70
2018-01-25T01:26:39.242Z,45.57
2018-01-25T01:29:07.047Z,42.60
2018-01-25T01:31:34.961Z,42.30
2018-01-25T01:34:02.752Z,44.53
2018-01-25T01:36:30.552Z,43.50
2018-01-25T01:38:58.548Z,41.13
2018-01-25T01:41:26.327Z,38.53
2018-01-25T01:43:54.115Z,36.80
2018-01-25T01:46:22.695Z,33.33
2018-01-25T01:48:50.533Z,30.70
2018-01-25T01:51:18.347Z,31.53
2018-01-25T01:53:46.958Z,30.70
2018-01-25T01:56:14.763Z,30.43
2018-01-25T01:58:42.607Z,31.47
2018-01-25T02:01:10.416Z,35.70
2018-01-25T02:03:38.245Z,36.97
2018-01-25T02:06:06.054Z,35.47
2018-01-25T02:08:34.805Z,38.07
2018-01-25T02:11:02.602Z,39.90
2018-01-25T02:13:30.481Z,41.20
2018-01-25T02:15:58.295Z,37.97
2018-01-25T02:18:26.100Z,40.10
2018-01-25T02:20:53.892Z,39.00
2018-01-25T02:23:21.741Z,38.73
2018-01-25T02:25:49.686Z,37.90
2018-01-25T02:28:17.527Z,41.10
2018-01-25T02:30:45.344Z,40.27
2018-01-25T02:33:13.156Z,40.00
2018-01-25T02:35:41.035Z,39.08
2018-01-25T02:38:08.819Z,41.03
2018-01-25T02:40:36.698Z,41.00
2018-01-25T02:43:04.473Z,43.60
2018-01-25T02:45:32.330Z,39.20
2018-01-25T02:48:00.792Z,41.40
2018-01-25T02:50:28.636Z,43.10
2018-01-25T02:52:56.500Z,44.03
2018-01-25T02:55:24.359Z,44.63
2018-01-25T02:57:52.252Z,40.07
2018-01-25T03:00:20.083Z,40.23
2018-01-25T03:02:47.909Z,41.40
2018-01-25T03:05:15.726Z,41.90
2018-01-25T03:07:43.532Z,40.37
2018-01-25T03:10:12.086Z,43.40
2018-01-25T03:12:39.990Z,42.33
2018-01-25T03:15:07.894Z,40.80
2018-01-25T03:17:35.738Z,40.27
2018-01-25T03:20:03.597Z,40.23
2018-01-25T03:26:03.482Z,37.80
2018-01-25T03:28:31.425Z,40.27
2018-01-25T03:30:59.264Z,40.97
2018-01-25T03:33:27.102Z,39.10
2018-01-25T03:35:55.757Z,36.80
2018-01-25T03:38:24.385Z,36.63
2018-01-25T03:40:52.228Z,34.43
2018-01-25T03:43:20.832Z,35.77
2018-01-25T03:45:48.698Z,37.33
2018-01-25T03:48:16.636Z,36.77
2018-01-25T03:50:45.248Z,34.90
2018-01-25T03:53:13.086Z,34.40
2018-01-25T03:55:40.921Z,36.50
2018-01-25T03:58:08.768Z,38.73
2018-01-25T04:00:36.586Z,33.93
2018-01-25T04:03:05.165Z,35.40
2018-01-25T04:05:33.007Z,34.90
2018-01-25T04:08:00.838Z,34.23
2018-01-25T04:10:28.635Z,34.40
2018-01-25T04:12:56.470Z,35.90
2018-01-25T04:15:24.337Z,34.03
2018-01-25T04:17:52.208Z,34.20
2018-01-25T04:20:20.040Z,32.90
2018-01-25T04:22:48.605Z,32.77
2018-01-25T04:25:16.419Z,32.50
2018-01-25T04:27:44.380Z,31.67
2018-01-25T04:30:12.238Z,34.23
2018-01-25T04:32:40.083Z,31.70
2018-01-25T04:35:07.948Z,31.93
2018-01-25T04:37:36.531Z,31.77
2018-01-25T04:40:05.128Z,34.97
2018-01-25T04:42:33.753Z,33.57
2018-01-25T04:45:01.600Z,33.77
2018-01-25T04:47:29.443Z,35.20
2018-01-25T04:49:57.251Z,35.30
2018-01-25T04:52:25.075Z,33.57
2018-01-25T04:54:52.907Z,31.90
2018-01-25T04:57:20.777Z,33.17
2018-01-25T04:59:48.584Z,31.50
2018-01-25T05:02:16.465Z,31.53
2018-01-25T05:04:44.266Z,30.60
2018-01-25T05:07:12.053Z,30.50
2018-01-25T05:09:39.915Z,28.17
2018-01-25T05:12:07.737Z,28.33
2018-01-25T05:14:35.552Z,27.50
2018-01-25T05:17:19.734Z,28.00
2018-01-25T05:19:47.596Z,26.80
2018-01-25T05:22:15.512Z,27.37
2018-01-25T05:24:43.319Z,26.00
2018-01-25T05:27:11.962Z,25.57
2018-01-25T05:29:39.773Z,26.03
2018-01-25T05:32:07.642Z,25.60
2018-01-25T05:34:35.449Z,27.10
2018-01-25T05:37:03.363Z,24.13
2018-01-25T05:39:31.213Z,24.70
2018-01-25T05:41:59.832Z,23.40
2018-01-25T05:44:27.640Z,24.50
2018-01-25T05:46:55.511Z,23.53
2018-01-25T05:49:23.383Z,23.93
2018-01-25T05:51:51.945Z,22.10
2018-01-25T05:54:19.764Z,21.73
2018-01-25T05:56:47.553Z,23.60
2018-01-25T05:59:15.367Z,22.63
2018-01-25T06:01:43.982Z,21.60
2018-01-25T06:04:11.847Z,20.50
2018-01-25T06:06:39.724Z,19.80
2018-01-25T06:09:07.587Z,22.20
2018-01-25T06:11:35.387Z,20.90
2018-01-25T06:14:03.259Z,23.23
2018-01-25T06:16:31.133Z,22.70
2018-01-25T06:18:58.999Z,23.67
2018-01-25T06:21:26.819Z,22.10
2018-01-25T06:23:54.640Z,23.10
2018-01-25T06:26:23.279Z,23.90
2018-01-25T06:28:51.114Z,25.33
2018-01-25T06:31:18.947Z,24.90
2018-01-25T06:33:46.791Z,26.00
2018-01-25T06:36:14.624Z,25.97
2018-01-25T06:38:42.445Z,25.60
2018-01-25T06:41:10.294Z,25.20
2018-01-25T06:43:38.149Z,27.17
2018-01-25T06:46:06.039Z,27.83
2018-01-25T06:48:33.867Z,26.00
2018-01-25T06:51:01.680Z,26.40
2018-01-25T06:53:29.511Z,25.07
2018-01-25T06:55:57.320Z,24.90
2018-01-25T06:58:25.966Z,24.90
2018-01-25T07:00:53.791Z,26.10
2018-01-25T07:03:21.635Z,26.83
2018-01-25T07:05:50.240Z,23.87
2018-01-25T07:08:18.057Z,26.63
2018-01-25T07:10:45.852Z,27.03
2018-01-25T07:13:14.423Z,24.10
2018-01-25T07:15:42.222Z,24.37
2018-01-25T07:18:10.056Z,24.60
2018-01-25T07:20:38.641Z,23.33
2018-01-25T07:23:07.225Z,24.70
2018-01-25T07:25:35.067Z,25.20
2018-01-25T07:28:02.861Z,24.70
2018-01-25T07:30:31.428Z,25.13
2018-01-25T07:33:25.869Z,21.93
2018-01-25T07:35:53.680Z,20.30
2018-01-25T07:39:03.883Z,22.47
2018-01-25T08:13:31.171Z,18.83
2018-01-25T08:20:06.557Z,17.83
2018-01-25T09:01:19.785Z,13.73
2018-01-25T09:03:47.608Z,12.67
2018-01-25T09:06:15.434Z,12.30
2018-01-25T09:08:43.308Z,12.73
2018-01-25T09:11:11.190Z,13.40
2018-01-25T09:13:39.035Z,13.60
2018-01-25T09:16:06.897Z,13.67
2018-01-25T09:18:34.723Z,13.97
2018-01-25T09:21:07.295Z,12.57
2018-01-25T09:23:36.213Z,13.27
2018-01-25T09:26:04.082Z,13.37
2018-01-25T09:28:31.909Z,13.50
2018-01-25T09:30:59.869Z,13.30
2018-01-25T09:44:01.813Z,15.30
2018-01-25T09:49:03.597Z,15.23
2018-01-25T09:51:31.442Z,15.13
2018-01-25T09:54:00.457Z,15.80
2018-01-25T09:56:28.274Z,15.60
2018-01-25T09:58:56.122Z,16.13
2018-01-25T10:01:23.925Z,16.40
2018-01-25T10:03:51.749Z,16.40
2018-01-25T10:06:19.613Z,16.30
2018-01-25T10:08:47.474Z,13.60
2018-01-25T10:11:15.294Z,15.60
2018-01-25T10:13:43.155Z,16.63
2018-01-25T10:16:10.979Z,14.80
2018-01-25T10:18:38.825Z,15.23
2018-01-25T10:21:06.644Z,14.80
2018-01-25T10:23:34.434Z,16.53
2018-01-25T10:26:03.014Z,17.87
2018-01-25T10:28:30.839Z,17.50
2018-01-25T10:30:58.655Z,15.93
2018-01-25T10:33:27.260Z,16.50
2018-01-25T10:35:55.087Z,16.27
2018-01-25T10:38:22.961Z,17.87
2018-01-25T10:40:50.813Z,16.07
2018-01-25T10:43:18.636Z,18.57
2018-01-25T10:45:46.497Z,17.70
2018-01-25T10:48:14.686Z,17.20
2018-01-25T10:50:42.569Z,18.63
2018-01-25T11:00:39.548Z,19.23
2018-01-25T11:07:10.976Z,20.33
2018-01-25T11:14:00.781Z,20.37
2018-01-25T11:16:29.272Z,21.07
2018-01-25T11:18:57.887Z,21.90
2018-01-25T11:21:26.546Z,22.20
2018-01-25T11:23:54.463Z,20.20
2018-01-25T11:26:22.339Z,21.50
2018-01-25T11:28:50.164Z,21.80
2018-01-25T11:31:17.995Z,22.37
2018-01-25T11:33:46.636Z,22.40
2018-01-25T11:36:14.431Z,18.63
2018-01-25T11:38:42.263Z,22.90
2018-01-25T11:41:10.196Z,20.83
2018-01-25T11:43:38.019Z,22.03
2018-01-25T11:46:05.800Z,18.80
2018-01-25T11:48:33.599Z,19.77
2018-01-25T11:51:01.399Z,21.63
2018-01-25T11:53:29.212Z,19.83
2018-01-25T11:55:57.060Z,19.67
2018-01-25T11:58:24.847Z,18.77
2018-01-25T12:00:52.649Z,18.20
2018-01-25T12:03:20.524Z,21.60
2018-01-25T12:05:48.363Z,20.97
2018-01-25T12:08:16.215Z,22.17
2018-01-25T12:10:44.032Z,21.43
2018-01-25T12:13:11.816Z,21.67
2018-01-25T12:15:40.423Z,21.20
2018-01-25T12:18:08.209Z,19.87
2018-01-25T12:20:36.191Z,20.97
2018-01-25T12:23:04.067Z,22.23
2018-01-25T12:25:32.035Z,28.13
2018-01-25T12:27:59.891Z,28.50
2018-01-25T12:30:27.687Z,25.05
2018-01-25T12:32:55.542Z,25.30
2018-01-25T12:35:23.321Z,25.17
2018-01-25T12:37:51.099Z,25.80
2018-01-25T12:40:19.636Z,24.83
2018-01-25T12:42:47.406Z,23.33
2018-01-25T12:45:15.259Z,24.20
2018-01-25T12:47:43.077Z,21.03
2018-01-25T12:50:11.664Z,19.70
2018-01-25T12:52:40.233Z,20.53
2018-01-25T12:55:08.024Z,19.87
2018-01-25T12:57:35.852Z,21.67
2018-01-25T13:00:03.735Z,21.43
2018-01-25T13:02:32.316Z,21.80
2018-01-25T13:05:00.860Z,20.10
2018-01-25T13:07:28.811Z,20.00
2018-01-25T13:09:56.620Z,19.07
2018-01-25T13:12:24.390Z,21.17
2018-01-25T13:14:52.200Z,18.00
2018-01-25T13:17:20.041Z,19.93
2018-01-25T13:19:48.599Z,21.50
2018-01-25T13:22:16.376Z,19.23
2018-01-25T13:24:45.069Z,18.97
2018-01-25T13:27:12.907Z,18.53
2018-01-25T13:29:40.738Z,19.47
2018-01-25T13:32:08.594Z,18.57
2018-01-25T13:34:36.380Z,18.40
2018-01-25T13:37:04.179Z,19.70
2018-01-25T13:39:32.033Z,19.60
2018-01-25T13:41:59.845Z,18.73
2018-01-25T13:44:27.665Z,16.47
2018-01-25T13:46:56.244Z,19.87
2018-01-25T13:49:24.057Z,17.80
2018-01-25T13:51:51.897Z,19.37
2018-01-25T13:54:20.521Z,20.90
2018-01-25T13:56:48.325Z,19.63
2018-01-25T13:59:16.152Z,20.50
2018-01-25T14:01:43.927Z,19.67
2018-01-25T14:04:11.715Z,18.03
2018-01-25T14:06:39.572Z,18.83
2018-01-25T14:09:07.391Z,20.47
2018-01-25T14:11:35.188Z,18.73
2018-01-25T14:14:03.015Z,20.57
2018-01-25T14:16:31.649Z,20.40
2018-01-25T14:18:59.452Z,20.97
2018-01-25T14:21:28.098Z,20.50
2018-01-25T14:23:55.912Z,19.87
2018-01-25T14:26:24.460Z,21.97
2018-01-25T14:28:52.263Z,19.30
2018-01-25T14:31:20.836Z,21.40
2018-01-25T14:33:49.444Z,20.47
2018-01-25T14:36:17.323Z,21.37
2018-01-25T14:38:45.111Z,25.50
2018-01-25T14:41:13.068Z,24.37
2018-01-25T14:43:40.865Z,25.50
2018-01-25T14:46:08.735Z,22.03
2018-01-25T14:48:38.437Z,22.10
2018-01-25T14:51:06.312Z,21.87
2018-01-25T14:53:34.240Z,22.00
2018-01-25T14:56:02.034Z,23.00
2018-01-25T14:58:29.941Z,24.60
2018-01-25T15:00:57.828Z,23.95
2018-01-25T15:03:26.008Z,23.67
2018-01-25T15:05:53.863Z,21.93
2018-01-25T15:08:23.435Z,24.63
2018-01-25T15:10:52.007Z,24.40
2018-01-25T15:13:19.879Z,24.53
2018-01-25T15:15:48.862Z,26.60
2018-01-25T15:18:26.641Z,24.00
2018-01-25T15:20:54.480Z,24.53
2018-01-25T15:23:23.826Z,24.20
2018-01-25T15:25:57.914Z,26.30
2018-01-25T15:28:25.784Z,26.27
2018-01-25T15:30:55.519Z,26.00
2018-01-25T15:33:23.364Z,24.57
2018-01-25T15:35:51.175Z,26.13
2018-01-25T15:38:19.854Z,25.47
2018-01-25T15:40:52.279Z,25.87
2018-01-25T15:43:20.096Z,27.00
2018-01-25T15:45:49.015Z,24.57
2018-01-25T15:48:17.178Z,25.97
2018-01-25T15:50:45.353Z,25.97
2018-01-25T15:53:13.237Z,26.27
2018-01-25T15:55:41.180Z,25.20
2018-01-25T15:58:09.047Z,28.00
2018-01-25T16:00:37.032Z,24.20
2018-01-25T16:03:05.134Z,27.10
2018-01-25T16:05:33.701Z,26.00
2018-01-25T16:08:01.540Z,26.10
2018-01-25T16:10:31.561Z,26.73
2018-01-25T16:12:59.523Z,25.97
2018-01-25T16:15:27.427Z,25.70
2018-01-25T16:17:55.275Z,28.10
2018-01-25T16:20:23.267Z,26.13
2018-01-25T16:22:51.194Z,24.93
2018-01-25T16:25:19.179Z,25.80
2018-01-25T16:27:47.045Z,27.20
2018-01-25T16:30:14.933Z,27.27
2018-01-25T16:32:42.752Z,27.27
2018-01-25T16:35:10.566Z,26.57
2018-01-25T16:37:38.371Z,27.77
2018-01-25T16:40:06.195Z,26.30
2018-01-25T16:42:34.056Z,27.77
2018-01-25T16:45:01.880Z,26.37
2018-01-25T16:47:29.692Z,26.37
2018-01-25T16:49:57.499Z,27.57
2018-01-25T16:52:26.064Z,25.30
2018-01-25T16:54:53.871Z,26.23
2018-01-25T16:57:21.677Z,25.30
2018-01-25T16:59:49.462Z,26.80
2018-01-25T17:02:17.277Z,25.40
2018-01-25T17:04:45.186Z,24.70
2018-01-25T17:07:13.020Z,25.40
2018-01-25T17:09:40.808Z,24.97
2018-01-25T17:12:08.623Z,26.30
2018-01-25T17:14:36.484Z,25.73
2018-01-25T17:17:04.345Z,26.30
2018-01-25T17:19:32.133Z,23.30
2018-01-25T17:21:59.934Z,24.50
2018-01-25T17:24:27.799Z,23.87
2018-01-25T17:26:55.944Z,23.07
2018-01-25T17:29:23.434Z,24.30
2018-01-25T17:31:51.230Z,25.50
2018-01-25T17:34:19.863Z,24.87
2018-01-25T17:36:47.730Z,24.50
2018-01-25T17:39:15.531Z,23.97
2018-01-25T17:41:44.081Z,25.10
2018-01-25T17:44:11.869Z,24.57
2018-01-25T17:46:39.706Z,24.30
2018-01-25T17:49:07.500Z,22.70
2018-01-25T17:51:35.346Z,24.50
2018-01-25T17:54:03.159Z,22.83
2018-01-25T17:56:30.953Z,23.87
2018-01-25T17:58:58.806Z,22.83
2018-01-25T18:01:26.616Z,22.20
2018-01-25T18:03:54.417Z,22.70
2018-01-25T18:06:22.246Z,22.20
2018-01-25T18:08:50.069Z,23.57
2018-01-25T18:11:17.931Z,22.97
2018-01-25T18:13:45.778Z,24.37
2018-01-25T18:16:14.401Z,23.80
2018-01-25T18:18:42.179Z,22.93
2018-01-25T18:21:09.975Z,21.70
2018-01-25T18:23:38.598Z,23.80
2018-01-25T18:26:06.420Z,23.00
2018-01-25T18:28:34.966Z,22.90
2018-01-25T18:31:02.796Z,23.10
2018-01-25T18:33:30.689Z,23.40
2018-01-25T18:35:58.484Z,22.93
2018-01-25T18:38:26.289Z,23.83
2018-01-25T18:40:54.197Z,24.40
2018-01-25T18:43:22.038Z,24.70
2018-01-25T18:45:50.635Z,23.67
2018-01-25T18:48:18.499Z,24.10
2018-01-25T18:50:46.410Z,23.90
2018-01-25T18:53:15.005Z,22.57
2018-01-25T18:55:42.891Z,23.90
2018-01-25T18:58:10.740Z,23.13
2018-01-25T19:00:39.358Z,24.57
2018-01-25T19:03:07.172Z,24.50
2018-01-25T19:05:35.788Z,23.43
2018-01-25T19:08:03.705Z,24.80
2018-01-25T19:10:31.559Z,21.10
2018-01-25T19:12:59.473Z,23.00
2018-01-25T19:15:28.116Z,21.70
2018-01-25T19:17:55.913Z,24.40
2018-01-25T19:20:24.530Z,22.30
2018-01-25T19:22:52.499Z,22.30
2018-01-25T19:25:20.349Z,23.03
2018-01-25T19:27:48.207Z,24.57
2018-01-25T19:30:16.075Z,23.20
2018-01-25T19:32:43.877Z,22.00
2018-01-25T19:35:12.424Z,22.97
2018-01-25T19:37:40.292Z,22.30
2018-01-25T19:40:08.229Z,23.40
2018-01-25T19:42:36.042Z,23.50
2018-01-25T19:45:03.912Z,22.53
2018-01-25T19:47:31.695Z,23.70
2018-01-25T19:49:59.475Z,22.80
2018-01-25T19:52:27.266Z,27.27
2018-01-25T19:54:55.201Z,27.05
2018-01-25T19:57:23.013Z,26.00
2018-01-25T19:59:50.813Z,29.07
2018-01-25T20:02:20.339Z,37.97
2018-01-25T20:04:48.215Z,32.60
2018-01-25T20:07:16.003Z,29.60
2018-01-25T20:09:43.816Z,30.50
2018-01-25T20:12:11.594Z,32.30
2018-01-25T20:14:39.416Z,31.77
2018-01-25T20:17:07.259Z,28.90
2018-01-25T20:19:35.812Z,30.00
2018-01-25T20:22:03.605Z,29.07
2018-01-25T20:24:32.192Z,28.70
2018-01-25T20:27:00.027Z,31.27
2018-01-25T20:29:27.856Z,30.70
2018-01-25T20:31:55.693Z,30.43
2018-01-25T20:34:23.519Z,29.17
2018-01-25T20:36:53.007Z,30.00
2018-01-25T20:39:21.248Z,27.63
2018-01-25T20:41:49.095Z,30.57
2018-01-25T20:44:16.930Z,28.27
2018-01-25T20:46:44.739Z,29.90
2018-01-25T20:49:12.541Z,28.03
2018-01-25T20:51:40.327Z,24.77
2018-01-25T20:54:08.205Z,22.10
2018-01-25T20:56:36.048Z,22.97
2018-01-25T20:59:04.110Z,22.03
2018-01-25T21:01:31.918Z,22.70
2018-01-25T21:03:59.766Z,23.10
2018-01-25T21:06:27.604Z,22.17
2018-01-25T21:08:55.419Z,21.97
2018-01-25T21:11:23.544Z,22.40
2018-01-25T21:13:51.384Z,20.87
2018-01-25T21:16:19.188Z,21.40
2018-01-25T21:18:47.071Z,20.07
2018-01-25T21:21:15.153Z,19.70
2018-01-25T21:23:43.746Z,18.80
2018-01-25T21:26:11.826Z,18.17
2018-01-25T21:28:40.193Z,18.20
2018-01-25T21:31:08.015Z,17.87
2018-01-25T21:33:35.834Z,16.80
2018-01-25T21:36:04.524Z,17.07
2018-01-25T21:38:32.336Z,18.07
2018-01-25T21:41:00.491Z,19.40
2018-01-25T21:43:28.664Z,19.40
2018-01-25T21:45:58.260Z,18.53
2018-01-25T21:48:26.112Z,18.13
2018-01-25T21:50:56.486Z,17.23
2018-01-25T21:53:24.308Z,15.90
2018-01-25T21:55:52.200Z,18.27
2018-01-25T21:58:19.999Z,19.20
2018-01-25T22:00:47.888Z,18.70
2018-01-25T22:03:16.855Z,18.90
2018-01-25T22:05:44.758Z,20.77
2018-01-25T22:08:12.551Z,17.73
2018-01-25T22:10:40.355Z,17.08
2018-01-25T22:13:08.179Z,14.50
2018-01-25T22:15:35.984Z,13.63
2018-01-25T22:18:03.756Z,13.00
2018-01-25T22:20:32.376Z,14.20
2018-01-25T22:23:00.204Z,12.30
2018-01-25T22:25:27.987Z,11.60
2018-01-25T22:27:56.544Z,11.33
2018-01-25T22:30:24.413Z,9.70
2018-01-25T22:32:52.195Z,9.80
2018-01-25T22:35:19.955Z,9.47
2018-01-25T22:37:47.800Z,9.63
2018-01-25T22:40:15.601Z,9.77
2018-01-25T22:42:44.171Z,11.67
2018-01-25T22:45:12.728Z,8.30
2018-01-25T22:47:40.572Z,9.67
2018-01-25T22:50:08.363Z,8.10
2018-01-25T22:52:36.195Z,9.40
2018-01-25T22:55:04.089Z,8.00
2018-01-25T22:57:31.899Z,9.33
2018-01-25T23:00:00.441Z,9.07
2018-01-25T23:02:28.390Z,7.83
2018-01-25T23:04:56.316Z,8.43
2018-01-25T23:07:24.939Z,7.97
2018-01-25T23:09:52.734Z,8.50
2018-01-25T23:12:20.590Z,7.70
2018-01-25T23:14:48.422Z,8.40
2018-01-25T23:17:16.203Z,7.10
2018-01-25T23:19:44.015Z,7.60
2018-01-25T23:22:11.795Z,6.73
2018-01-25T23:24:39.630Z,7.50
2018-01-25T23:27:07.780Z,7.23
2018-01-25T23:29:35.613Z,8.10
2018-01-25T23:32:03.504Z,8.03
2018-01-25T23:34:31.288Z,7.30
2018-01-25T23:36:59.119Z,6.90
2018-01-25T23:39:26.952Z,7.30
2018-01-25T23:41:55.569Z,6.37
2018-01-25T23:44:23.359Z,6.00
2018-01-25T23:46:51.150Z,5.90
2018-01-25T23:49:19.790Z,7.97
2018-01-25T23:51:47.613Z,8.17
2018-01-25T23:54:15.402Z,6.90
2018-01-25T23:56:44.967Z,7.50
2018-01-25T23:59:13.535Z,6.60
